Bogashevo Airport
UNTT : now visible

Airfield :











YOU CAN JOIN US ON...

 
LOGIN :

Register | Disclaimer

   EN    FR    IT 

 









Legend :    VFR   Marginal VFR   IFR   Intensive IFR   Very Intensive IFR
Visi :
Ceiling :
>= 8 km
>= 3000ft
5 to 8 km
1000 to 3000 ft
1500m to 5 km
500 to 1000 ft
800 to 1500m
200 to 500 ft
< 800m
< 200 ft
Symbols :   Thunderstorms  Fog  Heavy snow  Heavy precipitations  Wind > 20 kt






- Airport Elevation : 597 ft
- IATA code : TOF


UNTT - Bogashevo

CURRENT METAR :
  • 250800Z 11004MPS CAVOK M06/M12 Q1039 R21/450145 NOSIG RMK QFE764

EXPIRED METARs :
  • 250730Z 12004MPS CAVOK M06/M12 Q1039 R21/450145 NOSIG RMK QFE764
  • 250700Z 10004MPS CAVOK M06/M12 Q1039 R21/450145 NOSIG RMK QFE764
  • 250630Z 08003MPS CAVOK M06/M11 Q1039 R21/450145 NOSIG RMK QFE764
  • 250600Z 06003MPS CAVOK M06/M11 Q1039 R21/450145 NOSIG RMK QFE764
  • 250530Z 05002MPS CAVOK M07/M11 Q1039 R21/450145 NOSIG RMK QFE764

TAF TAF UNTT
Valid from the 25 at 06:00 until the 25 at 15:00 UTC


250500Z 2506/2515 05003MPS 9999 SCT040



MET'MAP, your aeronautical weather chart ! - Copyright ORBIFLY December 2007 - Disclaimer

ORBIFLY MET'MAP TEAM :

Programming & Development : Alexandra Zaïnal
Concept & original design : Baudouin d'Aumeries
Assistance for programming : Marc-Olivier Méhu
Technical & hardware support : Manuel Goepfert

Contact : metmap@orbifly.com




SOURCES & CREDITS :

   NOAA       Earth
Advisory